createdAt,value
2022-08-08T00:05:00.139Z,39.1
2022-08-08T00:15:05.312Z,39.2
2022-08-08T00:20:00.179Z,39.2
2022-08-08T00:25:00.133Z,39.4
2022-08-08T00:35:04.466Z,39.5
2022-08-08T00:45:03.308Z,39.7
2022-08-08T00:55:00.156Z,39.7
2022-08-08T01:00:05.164Z,39.8
2022-08-08T01:05:00.760Z,40.0
2022-08-08T01:10:06.502Z,40.0
2022-08-08T01:15:00.671Z,39.9
2022-08-08T01:25:00.582Z,40.1
2022-08-08T01:35:00.131Z,40.3
2022-08-08T01:40:02.927Z,40.2
2022-08-08T01:45:00.523Z,40.5
2022-08-08T01:50:01.206Z,40.5
2022-08-08T01:55:18.675Z,40.5
2022-08-08T02:05:00.110Z,40.7
2022-08-08T02:10:11.571Z,40.7
2022-08-08T02:15:01.008Z,40.8
2022-08-08T02:20:15.805Z,40.8
2022-08-08T02:25:11.500Z,40.9
2022-08-08T02:35:11.549Z,40.8
2022-08-08T02:40:01.614Z,40.8
2022-08-08T02:45:00.145Z,40.9
2022-08-08T02:55:02.421Z,40.8
2022-08-08T03:05:09.275Z,40.9
2022-08-08T03:15:54.871Z,41.0
2022-08-08T03:20:03.956Z,41.1
2022-08-08T03:25:00.224Z,41.1
2022-08-08T03:35:00.345Z,41.3
2022-08-08T03:40:04.086Z,41.3
2022-08-08T03:45:02.309Z,41.3
2022-08-08T03:55:19.927Z,41.4
2022-08-08T04:05:01.818Z,41.5
2022-08-08T04:15:00.120Z,41.5
2022-08-08T04:20:02.354Z,41.7
2022-08-08T04:25:02.525Z,41.7
2022-08-08T04:35:01.368Z,41.7
2022-08-08T04:45:00.618Z,42.0
2022-08-08T04:50:06.128Z,42.2
2022-08-08T04:55:01.726Z,42.2
2022-08-08T05:05:00.790Z,42.2
2022-08-08T05:15:04.418Z,42.4
2022-08-08T05:25:00.160Z,42.6
2022-08-08T05:35:05.657Z,42.7
2022-08-08T05:45:00.875Z,42.9
2022-08-08T05:50:00.169Z,43.0
2022-08-08T05:55:09.543Z,43.1
2022-08-08T06:05:00.145Z,43.2
2022-08-08T06:15:00.169Z,43.7
2022-08-08T06:20:00.160Z,44.4
2022-08-08T06:25:01.490Z,44.9
2022-08-08T06:35:12.501Z,44.9
2022-08-08T06:40:00.910Z,44.8
2022-08-08T06:45:00.172Z,44.7
2022-08-08T06:55:00.888Z,44.5
2022-08-08T07:05:00.669Z,44.3
2022-08-08T07:10:01.075Z,44.3
2022-08-08T07:15:00.942Z,44.2
2022-08-08T07:25:00.165Z,44.0
2022-08-08T07:35:03.076Z,43.9
2022-08-08T07:45:02.048Z,43.9
2022-08-08T07:50:00.972Z,43.8
2022-08-08T07:55:00.317Z,43.8
2022-08-08T08:05:00.174Z,43.7
2022-08-08T08:10:02.714Z,43.7
2022-08-08T08:15:04.973Z,43.6
2022-08-08T08:20:00.166Z,43.5
2022-08-08T08:25:08.615Z,43.5
2022-08-08T08:35:03.664Z,43.3
2022-08-08T08:45:00.123Z,43.2
2022-08-08T08:55:01.152Z,43.2
2022-08-08T09:05:00.156Z,43.1
2022-08-08T09:15:01.188Z,43.0
2022-08-08T09:21:54.904Z,43.0
2022-08-08T09:25:00.161Z,42.9
2022-08-08T09:30:01.729Z,42.9
2022-08-08T09:35:00.312Z,42.8
2022-08-08T09:45:08.031Z,42.7
2022-08-08T09:55:01.296Z,42.7
2022-08-08T10:05:07.273Z,42.6
2022-08-08T10:15:01.268Z,42.5
2022-08-08T10:25:01.535Z,42.5
2022-08-08T10:35:01.753Z,42.5
2022-08-08T10:45:00.977Z,42.4
2022-08-08T10:55:06.757Z,42.4
2022-08-08T11:05:05.684Z,42.3
2022-08-08T11:15:00.342Z,42.3
2022-08-08T11:25:00.137Z,42.3
2022-08-08T11:30:19.781Z,42.2
2022-08-08T11:35:11.452Z,42.2
2022-08-08T11:40:01.080Z,42.1
2022-08-08T11:45:00.163Z,42.1
2022-08-08T11:55:00.104Z,42.0
2022-08-08T12:05:00.642Z,42.0
2022-08-08T12:15:00.162Z,41.9
2022-08-08T12:25:00.291Z,41.8
2022-08-08T12:35:13.317Z,41.8
2022-08-08T12:40:02.982Z,41.8
2022-08-08T12:45:00.201Z,41.8
2022-08-08T12:50:00.288Z,41.7
2022-08-08T12:55:00.131Z,41.7
2022-08-08T13:05:00.186Z,41.7
2022-08-08T13:15:00.182Z,41.7
2022-08-08T13:25:00.891Z,41.8
2022-08-08T13:35:00.152Z,41.7
2022-08-08T13:45:00.577Z,41.7
2022-08-08T13:50:34.347Z,41.7
2022-08-08T13:55:00.524Z,41.7
2022-08-08T14:05:20.034Z,41.6
2022-08-08T14:15:03.241Z,41.5
2022-08-08T14:25:00.774Z,41.6
2022-08-08T14:35:04.761Z,41.5
2022-08-08T14:40:06.998Z,41.5
2022-08-08T14:45:00.598Z,41.6
2022-08-08T14:50:11.577Z,41.6
2022-08-08T14:55:01.833Z,41.6
2022-08-08T15:00:00.256Z,41.7
2022-08-08T15:05:11.827Z,41.7
2022-08-08T15:15:00.169Z,41.7
2022-08-08T15:25:00.746Z,41.6
2022-08-08T15:30:00.221Z,41.7
2022-08-08T15:35:00.185Z,41.7
2022-08-08T15:40:00.472Z,41.7
2022-08-08T15:45:00.143Z,41.7
2022-08-08T15:55:01.314Z,41.8
2022-08-08T16:05:00.193Z,41.8
2022-08-08T16:15:00.482Z,41.8
2022-08-08T16:20:01.305Z,41.8
2022-08-08T16:25:06.223Z,41.8
2022-08-08T16:30:13.998Z,41.8
2022-08-08T16:35:00.143Z,41.8
2022-08-08T16:45:02.432Z,41.8
2022-08-08T16:50:02.925Z,41.8
2022-08-08T16:55:23.524Z,41.8
2022-08-08T17:00:08.738Z,41.7
2022-08-08T17:05:03.432Z,41.8
2022-08-08T17:15:00.126Z,41.7
2022-08-08T17:25:02.278Z,41.7
2022-08-08T17:35:54.974Z,41.7
2022-08-08T17:40:12.723Z,41.7
2022-08-08T17:45:00.146Z,41.7
2022-08-08T17:55:00.141Z,41.7
2022-08-08T18:05:01.006Z,41.8
2022-08-08T18:15:00.133Z,41.9
2022-08-08T18:25:00.116Z,41.9
2022-08-08T18:35:00.235Z,41.9
2022-08-08T18:40:00.484Z,42.0
2022-08-08T18:45:45.225Z,42.1
2022-08-08T18:55:11.391Z,42.0
2022-08-08T19:05:00.401Z,41.8
2022-08-08T19:10:13.935Z,41.9
2022-08-08T19:15:00.141Z,41.9
2022-08-08T19:25:30.704Z,42.1
2022-08-08T19:35:03.014Z,42.1
2022-08-08T19:45:07.584Z,42.0
2022-08-08T19:50:02.749Z,42.0
2022-08-08T19:55:05.191Z,42.0
2022-08-08T20:00:00.498Z,42.0
2022-08-08T20:15:00.170Z,42.0
2022-08-08T20:25:00.667Z,42.2
2022-08-08T20:30:01.649Z,42.3
2022-08-08T20:35:02.259Z,42.4
2022-08-08T20:45:00.238Z,42.5
2022-08-08T20:55:00.468Z,42.7
2022-08-08T21:05:01.686Z,42.8
2022-08-08T21:15:07.460Z,42.8
2022-08-08T21:25:02.289Z,42.9
2022-08-08T21:30:07.826Z,42.8
2022-08-08T21:36:15.554Z,42.7
2022-08-08T21:45:20.995Z,42.6
2022-08-08T21:55:04.153Z,42.5
2022-08-08T22:00:04.714Z,42.5
2022-08-08T22:05:00.127Z,42.5
2022-08-08T22:10:01.697Z,42.5
2022-08-08T22:15:00.124Z,42.5
2022-08-08T22:27:01.122Z,42.4
2022-08-08T22:30:03.747Z,42.4
2022-08-08T22:35:03.861Z,42.3
2022-08-08T22:45:01.025Z,42.4
2022-08-08T22:55:05.707Z,42.4
2022-08-08T23:05:07.686Z,42.4
2022-08-08T23:15:10.973Z,42.4
2022-08-08T23:20:00.459Z,42.4
2022-08-08T23:25:00.144Z,42.4
2022-08-08T23:35:00.143Z,42.5
2022-08-08T23:40:00.618Z,42.6
2022-08-08T23:45:00.151Z,42.6
2022-08-08T23:50:05.424Z,42.7
2022-08-08T23:55:14.872Z,42.7
